createdAt,value
2022-10-28T00:02:17.927Z,100322.63
2022-10-28T00:07:19.584Z,100374.00
2022-10-28T00:12:21.245Z,100332.53
2022-10-28T00:22:25.501Z,100371.75
2022-10-28T00:27:27.249Z,100422.91
2022-10-28T00:32:30.111Z,100386.47
2022-10-28T00:37:31.765Z,100428.72
2022-10-28T00:42:33.445Z,100405.47
2022-10-28T00:47:44.067Z,100366.81
2022-10-28T00:52:49.592Z,100362.91
2022-10-28T00:57:56.704Z,100364.09
2022-10-28T01:02:58.424Z,100378.09
2022-10-28T01:08:02.600Z,100406.16
2022-10-28T01:13:19.049Z,100356.91
2022-10-28T01:18:42.604Z,100369.09
2022-10-28T01:24:02.165Z,100375.66
2022-10-28T01:29:29.652Z,100418.25
2022-10-28T01:35:05.154Z,100434.19
2022-10-28T01:40:13.663Z,100412.53
2022-10-28T01:45:27.878Z,100396.94
2022-10-28T01:50:58.949Z,100357.91
2022-10-28T01:56:06.294Z,100403.88
2022-10-28T02:01:10.462Z,100383.22
2022-10-28T02:06:22.564Z,100388.34
2022-10-28T02:11:36.335Z,100339.84
2022-10-28T02:16:55.958Z,100438.22
2022-10-28T02:22:15.907Z,100345.66
2022-10-28T02:27:32.993Z,100359.19
2022-10-28T02:32:39.751Z,100353.34
2022-10-28T02:37:44.023Z,100378.31
2022-10-28T02:42:59.976Z,100347.91
2022-10-28T02:48:16.251Z,100386.66
2022-10-28T02:58:41.002Z,100345.66
2022-10-28T03:03:43.044Z,100330.91
2022-10-28T03:08:44.662Z,100348.22
2022-10-28T03:13:46.343Z,100349.41
2022-10-28T03:18:47.999Z,100301.09
2022-10-28T03:23:49.684Z,100294.44
2022-10-28T03:28:51.411Z,100351.16
2022-10-28T03:33:53.030Z,100344.03
2022-10-28T03:38:54.704Z,100309.50
2022-10-28T03:43:57.036Z,100313.03
2022-10-28T03:48:58.668Z,100374.69
2022-10-28T03:54:00.394Z,100355.41
2022-10-28T03:59:02.054Z,100325.72
2022-10-28T04:04:03.761Z,100289.91
2022-10-28T04:09:05.427Z,100322.22
2022-10-28T04:14:07.036Z,100301.50
2022-10-28T04:19:08.673Z,100362.81
2022-10-28T04:24:10.285Z,100279.84
2022-10-28T04:29:11.941Z,100310.22
2022-10-28T04:34:13.556Z,100315.00
2022-10-28T04:39:15.195Z,100313.63
2022-10-28T04:44:16.850Z,100310.88
2022-10-28T04:49:18.451Z,100406.69
2022-10-28T04:54:20.048Z,100376.03
2022-10-28T04:59:21.661Z,100268.66
2022-10-28T05:04:23.352Z,100389.53
2022-10-28T05:09:24.961Z,100370.34
2022-10-28T05:14:26.587Z,100299.09
2022-10-28T05:19:28.245Z,100266.31
2022-10-28T05:24:29.853Z,100343.47
2022-10-28T05:29:33.433Z,100318.63
2022-10-28T05:34:35.230Z,100282.66
2022-10-28T05:39:36.952Z,100333.47
2022-10-28T05:44:38.609Z,100347.28
2022-10-28T05:49:40.216Z,100322.41
2022-10-28T05:54:41.828Z,100313.06
2022-10-28T05:59:43.486Z,100364.72
2022-10-28T06:04:45.089Z,100341.53
2022-10-28T06:09:46.765Z,100379.94
2022-10-28T06:14:46.845Z,100345.88
2022-10-28T06:19:48.681Z,100355.72
2022-10-28T06:24:50.288Z,100319.06
2022-10-28T06:29:51.921Z,100329.63
2022-10-28T06:34:53.842Z,100347.13
2022-10-28T06:39:57.324Z,100413.59
2022-10-28T06:44:59.019Z,100349.78
2022-10-28T06:50:02.180Z,100383.38
2022-10-28T06:55:04.015Z,100344.16
2022-10-28T07:00:06.239Z,100398.50
2022-10-28T07:05:08.363Z,100336.59
2022-10-28T07:10:10.208Z,100392.28
2022-10-28T07:15:11.919Z,100381.19
2022-10-28T07:20:13.841Z,100405.84
2022-10-28T07:25:15.519Z,100426.88
2022-10-28T07:30:17.143Z,100332.84
2022-10-28T07:35:19.117Z,100347.19
2022-10-28T07:40:21.687Z,100387.09
2022-10-28T07:45:23.311Z,100426.84
2022-10-28T07:50:24.922Z,100409.19
2022-10-28T07:55:26.667Z,100355.56
2022-10-28T08:00:28.305Z,100343.09
2022-10-28T08:05:29.960Z,100365.97
2022-10-28T08:10:31.561Z,100376.91
2022-10-28T08:15:33.485Z,100360.72
2022-10-28T08:20:35.195Z,100384.38
2022-10-28T08:25:37.072Z,100417.84
2022-10-28T08:30:56.632Z,100431.91
2022-10-28T08:36:00.530Z,100333.56
2022-10-28T08:41:32.566Z,100340.22
2022-10-28T08:46:37.297Z,100360.56
2022-10-28T08:51:46.445Z,100318.66
2022-10-28T08:56:49.869Z,100371.25
2022-10-28T09:02:00.158Z,100406.94
2022-10-28T09:07:03.781Z,100386.97
2022-10-28T09:12:26.887Z,100379.66
2022-10-28T09:17:48.717Z,100326.91
2022-10-28T09:23:22.654Z,100397.75
2022-10-28T09:28:30.166Z,100314.91
2022-10-28T09:33:34.875Z,100366.16
2022-10-28T09:38:40.611Z,100347.44
2022-10-28T09:43:53.910Z,100346.31
2022-10-28T09:49:02.408Z,100278.06
2022-10-28T09:54:04.163Z,100296.00
2022-10-28T09:59:06.091Z,100318.28
2022-10-28T10:04:25.817Z,100310.19
2022-10-28T10:09:31.478Z,100345.97
2022-10-28T10:14:56.575Z,100371.94
2022-10-28T10:20:01.104Z,100315.41
2022-10-28T10:25:05.068Z,100349.03
2022-10-28T10:30:18.699Z,100331.16
2022-10-28T10:35:25.639Z,100272.34
2022-10-28T10:40:33.638Z,100283.53
2022-10-28T10:45:35.279Z,100326.88
2022-10-28T10:50:38.058Z,100322.28
2022-10-28T10:55:41.278Z,100268.03
2022-10-28T11:06:39.984Z,100276.47
2022-10-28T11:11:41.717Z,100232.09
2022-10-28T11:16:50.916Z,100252.88
2022-10-28T11:22:11.036Z,100254.78
2022-10-28T11:27:51.810Z,100257.78
2022-10-28T11:33:30.764Z,100230.94
2022-10-28T11:38:57.931Z,100276.22
2022-10-28T11:44:05.049Z,100223.03
2022-10-28T11:49:09.949Z,100246.66
2022-10-28T11:54:25.358Z,100232.28
2022-10-28T12:00:00.362Z,100212.03
2022-10-28T12:05:13.062Z,100238.28
2022-10-28T12:10:14.551Z,100231.50
2022-10-28T12:15:40.645Z,100176.88
2022-10-28T12:20:56.624Z,100207.69
2022-10-28T12:25:59.552Z,100177.81
2022-10-28T12:31:02.858Z,100194.03
2022-10-28T12:36:04.334Z,100165.16
2022-10-28T12:41:25.022Z,100183.00
2022-10-28T12:46:35.548Z,100163.88
2022-10-28T12:51:41.629Z,100162.19
2022-10-28T12:56:53.023Z,100186.00
2022-10-28T13:02:01.343Z,100186.00
2022-10-28T13:07:03.131Z,100192.66
2022-10-28T13:12:42.263Z,100196.06
2022-10-28T13:17:57.133Z,100156.47
2022-10-28T13:23:49.368Z,100140.50
2022-10-28T13:28:58.005Z,100162.72
2022-10-28T13:34:00.384Z,100166.25
2022-10-28T13:39:06.061Z,100130.63
2022-10-28T13:44:10.680Z,100159.69
2022-10-28T13:49:34.613Z,100168.53
2022-10-28T13:54:46.465Z,100108.50
2022-10-28T13:59:56.572Z,100109.56
2022-10-28T14:05:04.168Z,100119.25
2022-10-28T14:10:33.002Z,100118.72
2022-10-28T14:15:37.337Z,100113.41
2022-10-28T14:20:47.992Z,100179.81
2022-10-28T14:25:49.541Z,100171.41
2022-10-28T14:31:12.429Z,100139.63
2022-10-28T14:36:17.126Z,100110.53
2022-10-28T14:41:30.036Z,100148.34
2022-10-28T14:46:40.766Z,100119.91
2022-10-28T14:51:44.208Z,100130.84
2022-10-28T14:56:46.593Z,100145.38
2022-10-28T15:02:00.045Z,100150.13
2022-10-28T15:07:02.019Z,100157.75
2022-10-28T15:12:10.982Z,100086.75
2022-10-28T15:17:24.870Z,100169.84
2022-10-28T15:22:33.329Z,100147.06
2022-10-28T15:27:38.158Z,100134.84
2022-10-28T15:32:39.904Z,100168.09
2022-10-28T15:37:41.646Z,100155.84
2022-10-28T15:42:54.333Z,100104.81
2022-10-28T15:47:57.757Z,100167.06
2022-10-28T15:53:11.935Z,100128.00
2022-10-28T15:58:18.841Z,100151.06
2022-10-28T16:03:41.309Z,100137.53
2022-10-28T16:08:43.041Z,100124.22
2022-10-28T16:13:49.764Z,100098.16
2022-10-28T16:19:10.489Z,100119.69
2022-10-28T16:24:13.328Z,100142.72
2022-10-28T16:29:15.024Z,100220.38
2022-10-28T16:34:18.708Z,100240.53
2022-10-28T16:39:20.463Z,100144.06
2022-10-28T16:44:24.015Z,100244.47
2022-10-28T16:49:25.673Z,100223.00
2022-10-28T16:54:27.334Z,100231.16
2022-10-28T16:59:28.954Z,100238.28
2022-10-28T17:04:30.955Z,100234.06
2022-10-28T17:09:32.561Z,100239.75
2022-10-28T17:14:34.305Z,100217.72
2022-10-28T17:19:36.608Z,100214.06
2022-10-28T17:24:38.829Z,100216.53
2022-10-28T17:29:40.556Z,100272.22
2022-10-28T17:34:42.526Z,100306.44
2022-10-28T17:39:44.314Z,100227.19
2022-10-28T17:44:46.050Z,100240.81
2022-10-28T17:49:47.784Z,100251.19
2022-10-28T17:54:49.512Z,100300.47
2022-10-28T17:59:51.126Z,100259.59
2022-10-28T18:04:52.775Z,100236.44
2022-10-28T18:09:54.426Z,100276.59
2022-10-28T18:14:56.071Z,100231.69
2022-10-28T18:20:01.549Z,100240.00
2022-10-28T18:25:03.600Z,100230.06
2022-10-28T18:30:05.850Z,100306.91
2022-10-28T18:35:08.651Z,100320.88
2022-10-28T18:40:10.906Z,100293.59
2022-10-28T18:45:12.924Z,100266.47
2022-10-28T18:50:15.736Z,100332.88
2022-10-28T18:55:17.469Z,100257.16
2022-10-28T19:00:20.013Z,100357.50
2022-10-28T19:05:21.893Z,100303.59
2022-10-28T19:10:23.619Z,100362.16
2022-10-28T19:15:25.299Z,100339.13
2022-10-28T19:20:26.911Z,100309.16
2022-10-28T19:25:28.559Z,100270.63
2022-10-28T19:30:30.203Z,100244.88
2022-10-28T19:35:33.291Z,100272.66
2022-10-28T19:40:34.910Z,100291.53
2022-10-28T19:45:36.577Z,100352.66
2022-10-28T19:50:38.191Z,100359.88
2022-10-28T19:55:39.795Z,100341.72
2022-10-28T20:00:41.403Z,100352.56
2022-10-28T20:05:43.087Z,100336.72
2022-10-28T20:10:46.488Z,100369.50
2022-10-28T20:15:48.161Z,100353.69
2022-10-28T20:20:50.060Z,100376.78
2022-10-28T20:25:52.915Z,100347.69
2022-10-28T20:31:03.233Z,100349.13
2022-10-28T20:36:06.003Z,100362.22
2022-10-28T20:41:08.928Z,100358.56
2022-10-28T20:46:16.073Z,100334.91
2022-10-28T20:51:21.940Z,100332.56
2022-10-28T20:56:25.912Z,100390.63
2022-10-28T21:01:31.479Z,100392.31
2022-10-28T21:06:33.592Z,100386.47
2022-10-28T21:11:35.242Z,100406.25
2022-10-28T21:16:36.997Z,100414.00
2022-10-28T21:21:38.619Z,100416.31
2022-10-28T21:26:40.281Z,100438.66
2022-10-28T21:31:41.928Z,100459.09
2022-10-28T21:36:43.572Z,100434.78
2022-10-28T21:41:45.229Z,100469.44
2022-10-28T21:46:48.371Z,100449.63
2022-10-28T21:51:50.081Z,100404.09
2022-10-28T21:56:51.720Z,100440.72
2022-10-28T22:01:53.677Z,100485.41
2022-10-28T22:06:55.406Z,100447.34
2022-10-28T22:11:57.029Z,100473.28
2022-10-28T22:16:58.654Z,100439.81
2022-10-28T22:22:00.311Z,100470.94
2022-10-28T22:27:01.971Z,100421.72
2022-10-28T22:32:03.741Z,100453.91
2022-10-28T22:37:05.447Z,100420.59
2022-10-28T22:42:07.544Z,100450.56
2022-10-28T22:47:09.245Z,100468.78
2022-10-28T22:52:10.859Z,100441.09
2022-10-28T22:57:12.511Z,100444.66
2022-10-28T23:02:14.174Z,100439.75
2022-10-28T23:07:15.881Z,100468.69
2022-10-28T23:12:17.606Z,100429.78
2022-10-28T23:17:19.220Z,100426.56
2022-10-28T23:22:20.859Z,100442.84
2022-10-28T23:27:22.531Z,100457.63
2022-10-28T23:32:24.174Z,100437.53
2022-10-28T23:37:25.851Z,100432.13
2022-10-28T23:42:28.217Z,100479.53
2022-10-28T23:47:29.826Z,100465.97
2022-10-28T23:52:31.442Z,100435.09
2022-10-28T23:57:33.287Z,100425.09
